Time;durP1;ratioP1;P1;durP2;ratioP2;P2;SDS_P1;SDS_P2;PMS_P1;PMS_P2;Temp;Humidity;BMP_temperature;BMP_pressure;BME280_temperature;BME280_humidity;BME280_pressure;Samples;Min_cycle;Max_cycle;Signal;HPM_P1;HPM_P2
2021/12/24 00:00:25;;;;;;;;;;;7.80;99.90;;;;;;5064359;28;20071;-62
2021/12/24 00:02:54;;;;;;;;;;;7.80;99.90;;;;;;5065754;28;19920;-62
2021/12/24 00:05:20;;;;;;;;;;;7.80;99.90;;;;;;5068170;28;20030;-62
2021/12/24 00:07:45;;;;;;;;;;;7.80;99.90;;;;;;5067918;28;20430;-62
2021/12/24 00:10:11;;;;;;;;;;;7.80;99.90;;;;;;5067100;28;20027;-63
2021/12/24 00:12:41;;;;;;;;;;;7.80;99.90;;;;;;5069095;28;20318;-63
2021/12/24 00:15:23;;;;;;;;;;;7.90;99.90;;;;;;5067648;28;20356;-62
2021/12/24 00:17:48;;;;;;;;;;;7.80;99.90;;;;;;5068162;28;19923;-63
2021/12/24 00:20:39;;;;;;;;;;;7.80;99.90;;;;;;5064856;28;20023;-62
2021/12/24 00:36:40;;;;;;;;;;;7.90;99.90;;;;;;5063788;28;19918;-62
2021/12/24 00:39:05;;;;;;;;;;;7.90;99.90;;;;;;5065370;28;20435;-62
2021/12/24 00:41:31;;;;;;;;;;;7.90;99.90;;;;;;5067108;28;20476;-63
2021/12/24 00:43:57;;;;;;;;;;;7.90;99.90;;;;;;5068743;28;19920;-63
2021/12/24 00:46:22;;;;;;;;;;;7.90;99.90;;;;;;5065972;28;20371;-62
2021/12/24 00:48:49;;;;;;;;;;;7.90;99.90;;;;;;5064599;28;19927;-62
2021/12/24 00:51:30;;;;;;;;;;;7.90;99.90;;;;;;5064339;28;19942;-62
2021/12/24 00:56:40;;;;;;;;;;;8.00;99.90;;;;;;5066938;28;19923;-62
2021/12/24 00:59:05;;;;;;;;;;;7.90;99.90;;;;;;5069744;28;19916;-63
2021/12/24 01:01:31;;;;;;;;;;;8.00;99.90;;;;;;5062612;28;20251;-62
2021/12/24 01:03:56;;;;;;;;;;;7.90;99.90;;;;;;5066243;28;20395;-62
2021/12/24 01:06:22;;;;;;;;;;;7.90;99.90;;;;;;5068843;28;19912;-62
2021/12/24 01:08:48;;;;;;;;;;;7.90;99.90;;;;;;5068053;28;20286;-63
2021/12/24 01:11:13;;;;;;;;;;;8.00;99.90;;;;;;5066387;28;19916;-63
2021/12/24 01:13:40;;;;;;;;;;;8.00;99.90;;;;;;5065632;28;20049;-62
2021/12/24 01:16:55;;;;;;;;;;;8.00;99.90;;;;;;5067618;28;20003;-62
2021/12/24 01:19:04;;;;;;;;;;;8.00;99.90;;;;;;5067877;28;20376;-62
2021/12/24 01:24:17;;;;;;;;;;;8.00;99.90;;;;;;5069299;28;20883;-62
2021/12/24 01:27:17;;;;;;;;;;;8.00;99.90;;;;;;5070197;28;19976;-63
2021/12/24 01:29:44;;;;;;;;;;;8.00;99.90;;;;;;5068391;28;19951;-63
2021/12/24 01:40:37;;;;;;;;;;;8.10;99.90;;;;;;5070334;28;20390;-62
2021/12/24 01:43:03;;;;;;;;;;;8.00;99.90;;;;;;5069840;28;20323;-62
2021/12/24 01:45:33;;;;;;;;;;;8.10;99.90;;;;;;5071865;28;19984;-62
2021/12/24 01:47:59;;;;;;;;;;;8.10;99.90;;;;;;5070013;28;20404;-63
2021/12/24 01:50:27;;;;;;;;;;;8.10;99.90;;;;;;5070034;28;19916;-62
2021/12/24 01:52:55;;;;;;;;;;;8.10;99.90;;;;;;5067812;28;19920;-62
2021/12/24 01:55:21;;;;;;;;;;;8.10;99.90;;;;;;5071135;28;20212;-63
2021/12/24 01:57:47;;;;;;;;;;;8.10;99.90;;;;;;5068988;28;19924;-63
2021/12/24 02:00:14;;;;;;;;;;;8.10;99.90;;;;;;5069950;28;20359;-62
2021/12/24 02:02:40;;;;;;;;;;;8.20;99.90;;;;;;5068174;28;20344;-63
2021/12/24 02:05:06;;;;;;;;;;;8.20;99.90;;;;;;5068174;28;19920;-63
2021/12/24 02:07:31;;;;;;;;;;;8.10;99.90;;;;;;5070139;28;19924;-63
2021/12/24 02:09:57;;;;;;;;;;;8.20;99.90;;;;;;5070557;28;20330;-63
2021/12/24 02:12:24;;;;;;;;;;;8.20;99.90;;;;;;5068148;28;19923;-62
2021/12/24 02:14:53;;;;;;;;;;;8.20;99.90;;;;;;5068841;28;19931;-62
2021/12/24 02:28:17;;;;;;;;;;;8.20;99.90;;;;;;5069242;28;19927;-63
2021/12/24 02:30:45;;;;;;;;;;;8.30;99.90;;;;;;5069521;28;19949;-62
2021/12/24 02:33:11;;;;;;;;;;;8.30;99.90;;;;;;5068139;28;19920;-62
2021/12/24 02:35:37;;;;;;;;;;;8.30;99.90;;;;;;5069562;28;19967;-62
2021/12/24 02:38:03;;;;;;;;;;;8.30;99.90;;;;;;5069737;28;19947;-62
2021/12/24 02:40:29;;;;;;;;;;;8.30;99.90;;;;;;5070031;28;20024;-62
2021/12/24 02:42:56;;;;;;;;;;;8.30;99.90;;;;;;5070649;28;20216;-62
2021/12/24 02:45:23;;;;;;;;;;;8.30;99.90;;;;;;5070853;28;20411;-62
2021/12/24 02:56:00;;;;;;;;;;;8.30;99.90;;;;;;5070742;28;19939;-62
2021/12/24 02:58:25;;;;;;;;;;;8.30;99.90;;;;;;5067508;28;20885;-62
2021/12/24 03:00:51;;;;;;;;;;;8.30;99.90;;;;;;5070393;28;19915;-62
2021/12/24 03:03:16;;;;;;;;;;;8.30;99.90;;;;;;5066492;28;19924;-62
2021/12/24 03:05:42;;;;;;;;;;;8.30;99.90;;;;;;5069600;28;20290;-62
2021/12/24 03:08:08;;;;;;;;;;;8.30;99.90;;;;;;5067204;28;20441;-62
2021/12/24 03:10:35;;;;;;;;;;;8.30;99.90;;;;;;5067743;28;19912;-62
2021/12/24 03:13:01;;;;;;;;;;;8.40;99.90;;;;;;5068554;28;19920;-63
2021/12/24 03:15:27;;;;;;;;;;;8.40;99.90;;;;;;5065646;28;19916;-62
2021/12/24 03:17:56;;;;;;;;;;;8.40;99.90;;;;;;5067712;28;19916;-62
2021/12/24 03:20:22;;;;;;;;;;;8.40;99.90;;;;;;5068534;28;20409;-62
2021/12/24 03:23:08;;;;;;;;;;;8.40;99.90;;;;;;5066948;28;19920;-62
2021/12/24 03:25:34;;;;;;;;;;;8.50;99.90;;;;;;5068666;28;19991;-62
2021/12/24 03:27:59;;;;;;;;;;;8.40;99.90;;;;;;5070474;28;20412;-62
2021/12/24 03:30:25;;;;;;;;;;;8.40;99.90;;;;;;5069008;28;20053;-62
2021/12/24 03:32:51;;;;;;;;;;;8.40;99.90;;;;;;5067192;28;19916;-62
2021/12/24 03:35:16;;;;;;;;;;;8.40;99.90;;;;;;5068510;28;19963;-62
2021/12/24 03:37:42;;;;;;;;;;;8.40;99.90;;;;;;5068552;28;19993;-62
2021/12/24 03:40:07;;;;;;;;;;;8.40;99.90;;;;;;5068712;28;19912;-62
2021/12/24 03:42:37;;;;;;;;;;;8.40;99.90;;;;;;5067643;28;20372;-62
2021/12/24 03:48:14;;;;;;;;;;;8.40;99.90;;;;;;5003108;28;19947;-62
2021/12/24 03:51:01;;;;;;;;;;;8.40;99.90;;;;;;5059488;28;20431;-61
2021/12/24 03:56:12;;;;;;;;;;;8.40;99.90;;;;;;5067808;28;20800;-61
2021/12/24 03:58:38;;;;;;;;;;;8.40;99.90;;;;;;5068539;28;19916;-63
2021/12/24 04:01:03;;;;;;;;;;;8.40;99.90;;;;;;5068253;28;19923;-61
2021/12/24 04:03:29;;;;;;;;;;;8.40;99.90;;;;;;5067481;28;19920;-62
2021/12/24 04:05:54;;;;;;;;;;;8.40;99.90;;;;;;5067943;28;19965;-62
2021/12/24 04:08:20;;;;;;;;;;;8.40;99.90;;;;;;5067593;28;19931;-62
2021/12/24 04:10:45;;;;;;;;;;;8.40;99.90;;;;;;5067777;28;20296;-63
2021/12/24 04:13:12;;;;;;;;;;;8.40;99.90;;;;;;5065511;28;19972;-62
2021/12/24 04:15:38;;;;;;;;;;;8.50;99.90;;;;;;5067598;28;19913;-62
2021/12/24 04:18:12;;;;;;;;;;;8.50;99.90;;;;;;5066243;28;19916;-62
2021/12/24 04:26:06;;;;;;;;;;;8.50;99.90;;;;;;5068242;28;20559;-62
2021/12/24 04:28:32;;;;;;;;;;;8.50;99.90;;;;;;5068234;28;19915;-63
2021/12/24 04:30:59;;;;;;;;;;;8.50;99.90;;;;;;5068012;28;19920;-62
2021/12/24 04:33:32;;;;;;;;;;;8.60;99.90;;;;;;5068160;28;20003;-62
2021/12/24 04:52:03;;;;;;;;;;;8.50;99.90;;;;;;5072045;28;19930;-62
2021/12/24 05:02:56;;;;;;;;;;;8.50;99.90;;;;;;5070623;28;19934;-62
2021/12/24 05:05:47;;;;;;;;;;;8.60;99.90;;;;;;5072264;28;20363;-60
2021/12/24 05:10:37;;;;;;;;;;;8.60;99.90;;;;;;5069667;28;19916;-62
2021/12/24 05:13:03;;;;;;;;;;;8.60;99.90;;;;;;5069248;28;19912;-61
2021/12/24 05:15:30;;;;;;;;;;;8.60;99.90;;;;;;5071609;28;19916;-62
2021/12/24 05:23:07;;;;;;;;;;;8.60;99.90;;;;;;5070155;28;19969;-62
2021/12/24 05:25:38;;;;;;;;;;;8.60;99.90;;;;;;5069387;28;19943;-62
2021/12/24 05:28:05;;;;;;;;;;;8.60;99.90;;;;;;5068917;28;20379;-62
2021/12/24 05:30:30;;;;;;;;;;;8.60;99.90;;;;;;5069249;28;19916;-62
2021/12/24 05:32:55;;;;;;;;;;;8.60;99.90;;;;;;5070552;28;20398;-62
2021/12/24 05:35:21;;;;;;;;;;;8.70;99.90;;;;;;5069489;28;19919;-63
2021/12/24 05:37:46;;;;;;;;;;;8.70;99.90;;;;;;5068817;28;19912;-62
2021/12/24 05:40:12;;;;;;;;;;;8.70;99.90;;;;;;5070723;28;19956;-62
2021/12/24 05:42:37;;;;;;;;;;;8.60;99.90;;;;;;5070706;28;19998;-62
2021/12/24 05:45:06;;;;;;;;;;;8.60;99.90;;;;;;5068847;28;20217;-62
2021/12/24 05:47:31;;;;;;;;;;;8.60;99.90;;;;;;5068044;28;19916;-62
2021/12/24 05:49:57;;;;;;;;;;;8.60;99.90;;;;;;5071963;28;19922;-63
2021/12/24 05:52:22;;;;;;;;;;;8.60;99.90;;;;;;5069048;28;20290;-62
2021/12/24 05:54:48;;;;;;;;;;;8.60;99.90;;;;;;5069962;28;19912;-62
2021/12/24 05:57:13;;;;;;;;;;;8.60;99.90;;;;;;5069146;28;19916;-62
2021/12/24 05:59:39;;;;;;;;;;;8.60;99.90;;;;;;5069885;28;20284;-62
2021/12/24 06:02:04;;;;;;;;;;;8.60;99.90;;;;;;5066614;28;20004;-63
2021/12/24 06:04:30;;;;;;;;;;;8.60;99.90;;;;;;5069521;28;20481;-62
2021/12/24 06:06:56;;;;;;;;;;;8.70;99.90;;;;;;5072619;28;19920;-62
2021/12/24 06:09:21;;;;;;;;;;;8.70;99.90;;;;;;5068618;28;19947;-63
2021/12/24 06:11:46;;;;;;;;;;;8.70;99.90;;;;;;5069824;28;19920;-62
2021/12/24 06:14:12;;;;;;;;;;;8.70;99.90;;;;;;5068808;28;19916;-63
2021/12/24 06:16:47;;;;;;;;;;;8.70;99.90;;;;;;5069258;28;19998;-62
2021/12/24 06:19:13;;;;;;;;;;;8.70;99.90;;;;;;5067689;28;19915;-62
2021/12/24 06:21:38;;;;;;;;;;;8.70;99.90;;;;;;5069935;28;20386;-62
2021/12/24 06:24:04;;;;;;;;;;;8.70;99.90;;;;;;5069499;28;19923;-62
2021/12/24 06:26:29;;;;;;;;;;;8.80;99.90;;;;;;5069495;28;19994;-63
2021/12/24 06:28:55;;;;;;;;;;;8.70;99.90;;;;;;5070275;28;19995;-63
2021/12/24 06:31:20;;;;;;;;;;;8.80;99.90;;;;;;5067892;28;19912;-63
2021/12/24 06:33:46;;;;;;;;;;;8.80;99.90;;;;;;5070567;28;19917;-63
2021/12/24 06:36:12;;;;;;;;;;;8.70;99.90;;;;;;5067992;28;19916;-63
2021/12/24 06:38:37;;;;;;;;;;;8.70;99.90;;;;;;5069984;28;19995;-63
2021/12/24 06:41:03;;;;;;;;;;;8.70;99.90;;;;;;5069763;28;19958;-62
2021/12/24 06:43:29;;;;;;;;;;;8.70;99.90;;;;;;5068282;28;20011;-63
2021/12/24 06:45:56;;;;;;;;;;;8.70;99.90;;;;;;5068991;28;20072;-62
2021/12/24 06:48:22;;;;;;;;;;;8.80;99.90;;;;;;5068035;28;22475;-62
2021/12/24 06:50:48;;;;;;;;;;;8.70;99.90;;;;;;5068633;28;19912;-63
2021/12/24 06:53:14;;;;;;;;;;;8.70;99.90;;;;;;5068295;28;19969;-62
2021/12/24 06:55:39;;;;;;;;;;;8.80;99.90;;;;;;5070642;28;20346;-62
2021/12/24 06:58:05;;;;;;;;;;;8.70;99.90;;;;;;5068713;28;20585;-62
2021/12/24 07:00:31;;;;;;;;;;;8.80;99.90;;;;;;5068057;28;19912;-63
2021/12/24 07:02:56;;;;;;;;;;;8.80;99.90;;;;;;5069561;28;20450;-63
2021/12/24 07:05:22;;;;;;;;;;;8.70;99.90;;;;;;5069622;28;20022;-62
2021/12/24 07:07:47;;;;;;;;;;;8.80;99.90;;;;;;5067426;28;19970;-63
2021/12/24 07:10:13;;;;;;;;;;;8.80;99.90;;;;;;5067520;28;19963;-62
2021/12/24 07:12:38;;;;;;;;;;;8.70;99.90;;;;;;5069324;28;19970;-62
2021/12/24 07:15:05;;;;;;;;;;;8.80;99.90;;;;;;5067003;28;19920;-63
2021/12/24 07:17:30;;;;;;;;;;;8.80;99.90;;;;;;5068172;28;20521;-63
2021/12/24 07:19:56;;;;;;;;;;;8.80;99.90;;;;;;5070169;28;19960;-62
2021/12/24 07:22:21;;;;;;;;;;;8.80;99.90;;;;;;5066328;28;20501;-63
2021/12/24 07:24:46;;;;;;;;;;;8.80;99.90;;;;;;5069191;28;19916;-63
2021/12/24 07:27:12;;;;;;;;;;;8.80;99.90;;;;;;5066747;28;19913;-62
2021/12/24 07:29:37;;;;;;;;;;;8.80;99.90;;;;;;5067968;28;19999;-63
2021/12/24 07:32:04;;;;;;;;;;;8.80;99.90;;;;;;5063355;28;20035;-62
2021/12/24 07:34:29;;;;;;;;;;;8.80;99.90;;;;;;5065248;28;19973;-62
2021/12/24 07:36:55;;;;;;;;;;;8.80;99.90;;;;;;5063145;28;19942;-63
2021/12/24 07:39:21;;;;;;;;;;;8.80;99.90;;;;;;5066784;28;19916;-62
2021/12/24 07:41:47;;;;;;;;;;;8.80;99.90;;;;;;5070027;28;19920;-63
2021/12/24 07:44:13;;;;;;;;;;;8.80;99.90;;;;;;5065894;28;20476;-63
2021/12/24 07:46:45;;;;;;;;;;;8.80;99.90;;;;;;5066882;28;19916;-62
2021/12/24 07:51:59;;;;;;;;;;;8.80;99.90;;;;;;5069544;28;20379;-63
2021/12/24 07:54:25;;;;;;;;;;;8.80;99.90;;;;;;5068526;28;19965;-63
2021/12/24 07:56:50;;;;;;;;;;;8.80;99.90;;;;;;5068991;28;20488;-63
2021/12/24 07:59:16;;;;;;;;;;;8.80;99.90;;;;;;5070197;28;19974;-63
2021/12/24 08:01:45;;;;;;;;;;;8.80;99.90;;;;;;5067107;28;20371;-63
2021/12/24 08:04:11;;;;;;;;;;;8.80;99.90;;;;;;5068238;28;20155;-63
2021/12/24 08:06:37;;;;;;;;;;;8.90;99.90;;;;;;5069363;28;20101;-69
2021/12/24 08:09:03;;;;;;;;;;;8.90;99.90;;;;;;5068697;28;19957;-68
2021/12/24 08:11:28;;;;;;;;;;;8.90;99.90;;;;;;5067260;28;19912;-68
2021/12/24 08:13:54;;;;;;;;;;;9.00;99.90;;;;;;5066421;28;20023;-64
2021/12/24 08:16:20;;;;;;;;;;;8.90;99.90;;;;;;5065138;28;20596;-67
2021/12/24 08:18:45;;;;;;;;;;;8.90;99.90;;;;;;5067751;28;19916;-68
2021/12/24 08:21:11;;;;;;;;;;;8.90;99.90;;;;;;5067633;28;19918;-68
2021/12/24 08:23:36;;;;;;;;;;;8.90;99.90;;;;;;5068288;28;20283;-69
2021/12/24 08:26:02;;;;;;;;;;;8.80;99.90;;;;;;5069944;28;19920;-65
2021/12/24 08:28:28;;;;;;;;;;;8.90;99.90;;;;;;5069668;28;19916;-68
2021/12/24 08:30:54;;;;;;;;;;;8.90;99.90;;;;;;5072768;28;20276;-69
2021/12/24 08:33:19;;;;;;;;;;;8.90;99.90;;;;;;5070784;28;20006;-68
2021/12/24 08:35:45;;;;;;;;;;;9.00;99.90;;;;;;5072471;28;19922;-69
2021/12/24 08:38:10;;;;;;;;;;;8.90;99.90;;;;;;5071466;28;19916;-68
2021/12/24 08:40:36;;;;;;;;;;;8.90;99.90;;;;;;5073404;28;19923;-65
2021/12/24 08:43:02;;;;;;;;;;;8.90;99.90;;;;;;5072155;28;19920;-68
2021/12/24 08:45:27;;;;;;;;;;;8.90;99.90;;;;;;5071891;28;19923;-65
2021/12/24 08:47:53;;;;;;;;;;;9.00;99.90;;;;;;5071970;28;19923;-68
2021/12/24 08:50:18;;;;;;;;;;;9.00;99.90;;;;;;5071991;28;19919;-66
2021/12/24 08:52:45;;;;;;;;;;;9.00;99.90;;;;;;5070424;28;20393;-66
2021/12/24 08:55:11;;;;;;;;;;;9.00;99.90;;;;;;5072268;28;19916;-67
2021/12/24 08:57:38;;;;;;;;;;;9.00;99.90;;;;;;5072630;28;19918;-68
2021/12/24 09:00:04;;;;;;;;;;;8.90;99.90;;;;;;5071771;28;19916;-69
2021/12/24 09:02:30;;;;;;;;;;;9.00;99.90;;;;;;5072276;28;19916;-69
2021/12/24 09:04:55;;;;;;;;;;;9.00;99.90;;;;;;5069460;28;20330;-68
2021/12/24 09:07:21;;;;;;;;;;;9.00;99.90;;;;;;5072391;28;19935;-65
2021/12/24 09:09:46;;;;;;;;;;;9.00;99.90;;;;;;5071870;28;20284;-67
2021/12/24 09:12:12;;;;;;;;;;;9.00;99.90;;;;;;5070703;28;19969;-65
2021/12/24 09:14:38;;;;;;;;;;;9.00;99.90;;;;;;5070993;28;19955;-68
2021/12/24 09:17:04;;;;;;;;;;;9.00;99.90;;;;;;5071251;28;19952;-66
2021/12/24 09:19:31;;;;;;;;;;;9.00;99.90;;;;;;5071167;28;19912;-68
2021/12/24 09:21:57;;;;;;;;;;;9.00;99.90;;;;;;5071629;28;20390;-66
2021/12/24 09:24:24;;;;;;;;;;;9.00;99.90;;;;;;5071945;28;19928;-66
2021/12/24 09:26:54;;;;;;;;;;;9.00;99.90;;;;;;5069739;28;20373;-67
2021/12/24 09:29:19;;;;;;;;;;;9.10;99.90;;;;;;5068222;28;19912;-66
2021/12/24 09:31:45;;;;;;;;;;;9.00;99.90;;;;;;5071813;28;20374;-65
2021/12/24 09:34:10;;;;;;;;;;;9.00;99.90;;;;;;5068874;28;19920;-65
2021/12/24 09:36:37;;;;;;;;;;;9.10;99.90;;;;;;5069965;28;20018;-67
2021/12/24 09:39:04;;;;;;;;;;;9.10;99.90;;;;;;5069478;28;19923;-65
2021/12/24 09:41:29;;;;;;;;;;;9.10;99.90;;;;;;5071557;28;19916;-65
2021/12/24 09:43:58;;;;;;;;;;;9.00;99.90;;;;;;5068652;28;19974;-66
2021/12/24 09:46:27;;;;;;;;;;;9.10;99.90;;;;;;5069182;28;20567;-65
2021/12/24 09:48:52;;;;;;;;;;;9.00;99.90;;;;;;5071134;28;20415;-67
2021/12/24 09:51:18;;;;;;;;;;;9.00;99.90;;;;;;5071586;28;20018;-68
2021/12/24 09:53:43;;;;;;;;;;;9.00;99.90;;;;;;5070823;28;19970;-66
2021/12/24 09:56:09;;;;;;;;;;;9.10;99.90;;;;;;5069110;28;19912;-68
2021/12/24 09:58:34;;;;;;;;;;;9.10;99.90;;;;;;5070564;28;20669;-67
2021/12/24 10:01:00;;;;;;;;;;;9.10;99.90;;;;;;5071646;28;19916;-66
2021/12/24 10:03:33;;;;;;;;;;;9.10;99.90;;;;;;5070389;28;19942;-68
2021/12/24 10:06:00;;;;;;;;;;;9.10;99.90;;;;;;5070928;28;20298;-68
2021/12/24 10:08:26;;;;;;;;;;;9.10;99.90;;;;;;5070414;28;19927;-67
2021/12/24 10:10:59;;;;;;;;;;;9.10;99.90;;;;;;5070240;28;20378;-67
2021/12/24 10:13:32;;;;;;;;;;;9.10;99.90;;;;;;5070842;28;20327;-67
2021/12/24 10:16:04;;;;;;;;;;;9.10;99.90;;;;;;5069605;28;20407;-65
2021/12/24 10:18:41;;;;;;;;;;;9.10;99.90;;;;;;5070771;28;20442;-66
2021/12/24 10:21:07;;;;;;;;;;;9.10;99.90;;;;;;5070762;28;19916;-67
2021/12/24 10:23:40;;;;;;;;;;;9.10;99.90;;;;;;5071419;28;19943;-65
2021/12/24 10:26:12;;;;;;;;;;;9.10;99.90;;;;;;5067754;28;19934;-67
2021/12/24 10:28:38;;;;;;;;;;;9.20;99.90;;;;;;5071190;28;20279;-68
2021/12/24 10:31:03;;;;;;;;;;;9.20;99.90;;;;;;5066902;28;19916;-65
2021/12/24 10:33:29;;;;;;;;;;;9.20;99.90;;;;;;5069555;28;20378;-65
2021/12/24 10:36:01;;;;;;;;;;;9.20;99.90;;;;;;5068014;28;19919;-66
2021/12/24 10:38:27;;;;;;;;;;;9.20;99.90;;;;;;5067681;28;19921;-67
2021/12/24 10:40:54;;;;;;;;;;;9.20;99.90;;;;;;5069969;28;19917;-67
2021/12/24 10:43:24;;;;;;;;;;;9.20;99.90;;;;;;5069149;28;20019;-68
2021/12/24 10:46:07;;;;;;;;;;;9.20;99.90;;;;;;5068302;28;20298;-68
2021/12/24 10:48:32;;;;;;;;;;;9.30;99.90;;;;;;5068893;28;19920;-67
2021/12/24 10:51:06;;;;;;;;;;;9.30;99.90;;;;;;5070659;28;19919;-65
2021/12/24 10:53:51;;;;;;;;;;;9.30;99.90;;;;;;5068462;28;19916;-66
2021/12/24 10:56:24;;;;;;;;;;;9.30;99.90;;;;;;5069833;28;20850;-66
2021/12/24 10:58:49;;;;;;;;;;;9.40;99.90;;;;;;5069426;28;19908;-67
2021/12/24 11:01:15;;;;;;;;;;;9.30;99.90;;;;;;5068856;28;19916;-66
2021/12/24 11:03:43;;;;;;;;;;;9.30;99.90;;;;;;5084687;28;20648;-68
2021/12/24 11:06:11;;;;;;;;;;;9.30;99.90;;;;;;5069544;28;19913;-68
2021/12/24 11:08:37;;;;;;;;;;;9.30;99.90;;;;;;5069894;28;20031;-66
2021/12/24 11:11:05;;;;;;;;;;;9.20;99.90;;;;;;5066587;28;19946;-65
2021/12/24 11:13:38;;;;;;;;;;;9.30;99.90;;;;;;5069547;28;19912;-66
2021/12/24 11:16:03;;;;;;;;;;;9.30;99.90;;;;;;5069623;28;20523;-66
2021/12/24 11:18:30;;;;;;;;;;;9.30;99.90;;;;;;5068755;28;20003;-67
2021/12/24 11:21:03;;;;;;;;;;;9.30;99.90;;;;;;5069788;28;19912;-68
2021/12/24 11:23:30;;;;;;;;;;;9.20;99.90;;;;;;5067999;28;19955;-65
2021/12/24 11:26:01;;;;;;;;;;;9.20;99.90;;;;;;5069931;28;20419;-66
2021/12/24 11:28:27;;;;;;;;;;;9.20;99.90;;;;;;5068386;28;20600;-66
2021/12/24 11:30:55;;;;;;;;;;;9.20;99.90;;;;;;5070467;28;19912;-67
2021/12/24 11:33:21;;;;;;;;;;;9.20;99.90;;;;;;5067446;28;19923;-65
2021/12/24 11:35:48;;;;;;;;;;;9.20;99.90;;;;;;5069810;28;19921;-67
2021/12/24 11:38:17;;;;;;;;;;;9.20;99.90;;;;;;5065653;28;19916;-66
2021/12/24 11:40:44;;;;;;;;;;;9.20;99.90;;;;;;5069337;28;20253;-67
2021/12/24 11:43:10;;;;;;;;;;;9.20;99.90;;;;;;5063635;28;19920;-66
2021/12/24 11:45:36;;;;;;;;;;;9.20;99.90;;;;;;5067798;28;19916;-68
2021/12/24 11:48:02;;;;;;;;;;;9.20;99.90;;;;;;5070284;28;20286;-65
2021/12/24 11:50:28;;;;;;;;;;;9.20;99.90;;;;;;5070469;28;19919;-67
2021/12/24 11:53:03;;;;;;;;;;;9.20;99.90;;;;;;5069995;28;20371;-64
2021/12/24 11:55:35;;;;;;;;;;;9.20;99.90;;;;;;5070335;28;19912;-66
2021/12/24 11:58:03;;;;;;;;;;;9.20;99.90;;;;;;5069406;28;19928;-66
2021/12/24 12:00:30;;;;;;;;;;;9.20;99.90;;;;;;5068750;28;19913;-65
2021/12/24 12:02:56;;;;;;;;;;;9.20;99.90;;;;;;5069275;28;19920;-68
2021/12/24 12:05:31;;;;;;;;;;;9.20;99.90;;;;;;5070138;28;19912;-67
2021/12/24 12:08:16;;;;;;;;;;;9.20;99.90;;;;;;5070384;28;19955;-67
2021/12/24 12:10:49;;;;;;;;;;;9.20;99.90;;;;;;5070384;28;19916;-67
2021/12/24 12:13:33;;;;;;;;;;;9.30;99.90;;;;;;5064984;28;19991;-65
2021/12/24 12:15:59;;;;;;;;;;;9.30;99.90;;;;;;5067130;28;19916;-64
2021/12/24 12:18:29;;;;;;;;;;;9.30;99.90;;;;;;5069375;28;19927;-65
2021/12/24 12:21:08;;;;;;;;;;;9.30;99.90;;;;;;5071198;28;20279;-68
2021/12/24 12:26:50;;;;;;;;;;;9.20;99.90;;;;;;5068083;28;19923;-68
2021/12/24 12:29:30;;;;;;;;;;;9.20;99.90;;;;;;5055203;28;20408;-67
2021/12/24 12:32:01;;;;;;;;;;;9.20;99.90;;;;;;5068793;28;20327;-66
2021/12/24 12:34:39;;;;;;;;;;;9.30;99.90;;;;;;5066532;28;20359;-67
2021/12/24 12:37:14;;;;;;;;;;;9.30;99.90;;;;;;5067338;28;20045;-66
2021/12/24 12:39:39;;;;;;;;;;;9.20;99.90;;;;;;5067925;28;19916;-67
2021/12/24 12:42:05;;;;;;;;;;;9.30;99.90;;;;;;5069720;28;19967;-64
2021/12/24 12:44:32;;;;;;;;;;;9.30;99.90;;;;;;5069127;28;19927;-67
2021/12/24 12:47:17;;;;;;;;;;;9.30;99.90;;;;;;5069486;28;19997;-67
2021/12/24 12:49:43;;;;;;;;;;;9.30;99.90;;;;;;5068802;28;20356;-67
2021/12/24 12:52:17;;;;;;;;;;;9.30;99.90;;;;;;5068837;28;20464;-67
2021/12/24 12:54:44;;;;;;;;;;;9.20;99.90;;;;;;5071137;28;19916;-67
2021/12/24 12:57:24;;;;;;;;;;;9.30;99.90;;;;;;5068928;28;20112;-68
2021/12/24 13:00:07;;;;;;;;;;;9.20;99.90;;;;;;5070067;28;20283;-67
2021/12/24 13:02:52;;;;;;;;;;;9.40;99.90;;;;;;5068807;28;21874;-67
2021/12/24 13:05:17;;;;;;;;;;;9.30;99.90;;;;;;5068785;28;20010;-68
2021/12/24 13:07:43;;;;;;;;;;;9.30;99.90;;;;;;5070475;28;19920;-67
2021/12/24 13:10:08;;;;;;;;;;;9.40;99.90;;;;;;5073251;28;19920;-66
2021/12/24 13:12:34;;;;;;;;;;;9.40;99.90;;;;;;5070527;28;20672;-68
2021/12/24 13:15:00;;;;;;;;;;;9.40;99.90;;;;;;5073276;28;19999;-65
2021/12/24 13:17:31;;;;;;;;;;;9.30;99.90;;;;;;5072337;28;19923;-66
2021/12/24 13:20:10;;;;;;;;;;;9.30;99.90;;;;;;5072424;28;19916;-67
2021/12/24 13:22:37;;;;;;;;;;;9.30;99.90;;;;;;5072070;28;20371;-68
2021/12/24 13:25:13;;;;;;;;;;;9.30;99.90;;;;;;5071706;28;20046;-67
2021/12/24 13:27:44;;;;;;;;;;;9.40;99.90;;;;;;5073312;28;20000;-62
2021/12/24 13:30:10;;;;;;;;;;;9.40;99.90;;;;;;5072041;28;19916;-61
2021/12/24 13:32:38;;;;;;;;;;;9.40;99.90;;;;;;5071658;28;19916;-61
2021/12/24 13:35:04;;;;;;;;;;;9.30;99.90;;;;;;5068203;28;19916;-62
2021/12/24 13:37:30;;;;;;;;;;;9.40;99.90;;;;;;5072162;28;19980;-62
2021/12/24 13:39:56;;;;;;;;;;;9.40;99.90;;;;;;5072790;28;20598;-61
2021/12/24 13:42:21;;;;;;;;;;;9.40;99.90;;;;;;5072583;28;20300;-61
2021/12/24 13:44:48;;;;;;;;;;;9.40;99.90;;;;;;5072141;28;20371;-61
2021/12/24 13:47:23;;;;;;;;;;;9.40;99.90;;;;;;5070398;28;20332;-61
2021/12/24 13:55:26;;;;;;;;;;;9.40;99.90;;;;;;5073552;28;19923;-61
2021/12/24 13:57:52;;;;;;;;;;;9.40;99.90;;;;;;5071912;28;19916;-62
2021/12/24 14:00:18;;;;;;;;;;;9.40;99.90;;;;;;5072440;28;20371;-62
2021/12/24 14:02:54;;;;;;;;;;;9.40;99.90;;;;;;5071068;28;20160;-62
2021/12/24 14:05:20;;;;;;;;;;;9.40;99.90;;;;;;5087632;28;20579;-61
2021/12/24 14:07:47;;;;;;;;;;;9.40;99.90;;;;;;5072245;28;19999;-62
2021/12/24 14:10:22;;;;;;;;;;;9.40;99.90;;;;;;5073173;28;19939;-61
2021/12/24 14:12:48;;;;;;;;;;;9.40;99.90;;;;;;5070780;28;19912;-61
2021/12/24 14:15:16;;;;;;;;;;;9.30;99.90;;;;;;5069335;28;20287;-60
2021/12/24 14:20:58;;;;;;;;;;;9.30;99.90;;;;;;5071348;28;19923;-61
2021/12/24 14:23:17;;;;;;;;;;;9.20;99.90;;;;;;5069472;28;19939;-61
2021/12/24 14:26:00;;;;;;;;;;;9.20;99.90;;;;;;5070259;28;19912;-62
2021/12/24 14:28:25;;;;;;;;;;;9.20;99.90;;;;;;5073018;28;19916;-62
2021/12/24 14:30:58;;;;;;;;;;;9.10;99.90;;;;;;5071060;28;19927;-62
2021/12/24 14:33:23;;;;;;;;;;;9.10;99.90;;;;;;5068700;28;19923;-61
2021/12/24 14:35:52;;;;;;;;;;;9.10;99.90;;;;;;5068792;28;19916;-61
2021/12/24 14:38:18;;;;;;;;;;;9.20;99.90;;;;;;5070288;28;19977;-62
2021/12/24 14:40:43;;;;;;;;;;;9.20;99.90;;;;;;5072687;28;19917;-61
2021/12/24 14:43:17;;;;;;;;;;;9.20;99.90;;;;;;5070030;28;19927;-61
2021/12/24 14:45:43;;;;;;;;;;;9.20;99.90;;;;;;5070901;28;19913;-61
2021/12/24 14:48:25;;;;;;;;;;;9.30;99.90;;;;;;5068634;28;19924;-60
2021/12/24 14:50:51;;;;;;;;;;;9.30;99.90;;;;;;5071285;28;19918;-62
2021/12/24 14:53:28;;;;;;;;;;;9.30;99.90;;;;;;5071005;28;19923;-61
2021/12/24 14:55:57;;;;;;;;;;;9.30;99.90;;;;;;5072555;28;20430;-62
2021/12/24 14:58:31;;;;;;;;;;;9.30;99.90;;;;;;5069891;28;19916;-62
2021/12/24 15:00:57;;;;;;;;;;;9.20;99.90;;;;;;5072556;28;20366;-62
2021/12/24 15:03:28;;;;;;;;;;;9.20;99.90;;;;;;5070098;28;20287;-60
2021/12/24 15:05:54;;;;;;;;;;;9.20;99.90;;;;;;5071822;28;19916;-61
2021/12/24 15:08:24;;;;;;;;;;;9.20;99.90;;;;;;5068900;28;20504;-61
2021/12/24 15:10:56;;;;;;;;;;;9.20;99.90;;;;;;5072093;28;19916;-62
2021/12/24 15:13:23;;;;;;;;;;;9.10;99.90;;;;;;5069294;28;22061;-61
2021/12/24 15:15:49;;;;;;;;;;;9.10;99.90;;;;;;5072470;28;19920;-62
2021/12/24 15:18:15;;;;;;;;;;;9.00;99.90;;;;;;5070853;28;19912;-62
2021/12/24 15:20:40;;;;;;;;;;;9.10;99.90;;;;;;5069556;28;19922;-63
2021/12/24 15:23:06;;;;;;;;;;;9.20;99.90;;;;;;5070638;28;19920;-61
2021/12/24 15:25:32;;;;;;;;;;;9.20;99.90;;;;;;5072479;28;19943;-62
2021/12/24 15:28:01;;;;;;;;;;;9.20;99.90;;;;;;5071349;28;19915;-61
2021/12/24 15:30:26;;;;;;;;;;;9.20;99.90;;;;;;5070441;28;19985;-61
2021/12/24 15:32:52;;;;;;;;;;;9.10;99.90;;;;;;5070560;28;19917;-61
2021/12/24 15:35:17;;;;;;;;;;;9.10;99.90;;;;;;5069413;28;20023;-60
2021/12/24 15:37:43;;;;;;;;;;;9.00;99.90;;;;;;5069219;28;19939;-62
2021/12/24 15:40:09;;;;;;;;;;;8.90;99.90;;;;;;5069128;28;19918;-62
2021/12/24 15:42:34;;;;;;;;;;;8.90;99.90;;;;;;5070865;28;19947;-60
2021/12/24 15:45:01;;;;;;;;;;;8.90;99.90;;;;;;5070065;28;19927;-61
2021/12/24 15:47:27;;;;;;;;;;;8.80;99.90;;;;;;5069788;28;20367;-62
2021/12/24 15:49:52;;;;;;;;;;;8.80;99.90;;;;;;5073147;28;20008;-60
2021/12/24 15:52:18;;;;;;;;;;;8.80;99.90;;;;;;5066687;28;19973;-62
2021/12/24 15:54:43;;;;;;;;;;;8.80;99.90;;;;;;5067419;28;20304;-62
2021/12/24 15:57:09;;;;;;;;;;;8.80;99.90;;;;;;5069266;28;19923;-60
2021/12/24 15:59:36;;;;;;;;;;;8.80;99.90;;;;;;5070719;28;19916;-61
2021/12/24 16:02:02;;;;;;;;;;;8.80;99.90;;;;;;5071418;28;19916;-60
2021/12/24 16:04:28;;;;;;;;;;;8.80;99.90;;;;;;5069918;28;20527;-60
2021/12/24 16:06:53;;;;;;;;;;;8.70;99.90;;;;;;5070703;28;19927;-61
2021/12/24 16:09:20;;;;;;;;;;;8.70;99.90;;;;;;5071093;28;20007;-60
2021/12/24 16:11:49;;;;;;;;;;;8.60;99.90;;;;;;5070909;28;19922;-59
2021/12/24 16:14:15;;;;;;;;;;;8.60;99.90;;;;;;5068537;28;20418;-60
2021/12/24 16:16:44;;;;;;;;;;;8.70;99.90;;;;;;5069324;28;20394;-59
2021/12/24 16:19:13;;;;;;;;;;;8.60;99.90;;;;;;5072089;28;19915;-59